createdAt,value
2022-08-23T00:00:39.879Z,63.69
2022-08-23T00:02:48.079Z,63.60
2022-08-23T00:05:09.143Z,63.15
2022-08-23T00:07:18.682Z,63.14
2022-08-23T00:09:30.037Z,63.31
2022-08-23T00:11:41.449Z,63.69
2022-08-23T00:13:50.063Z,64.25
2022-08-23T00:16:00.835Z,64.53
2022-08-23T00:18:08.933Z,64.05
2022-08-23T00:20:21.289Z,63.94
2022-08-23T00:22:29.366Z,63.53
2022-08-23T00:24:40.924Z,63.83
2022-08-23T00:26:59.229Z,64.31
2022-08-23T00:29:07.231Z,64.78
2022-08-23T00:31:18.243Z,64.94
2022-08-23T00:33:26.440Z,66.30
2022-08-23T00:35:35.493Z,66.43
2022-08-23T00:37:44.285Z,66.42
2022-08-23T00:39:59.010Z,66.60
2022-08-23T00:42:30.194Z,65.97
2022-08-23T00:44:50.606Z,65.84
2022-08-23T00:47:14.067Z,65.82
2022-08-23T00:49:23.115Z,65.24
2022-08-23T00:51:50.728Z,66.06
2022-08-23T00:54:03.438Z,65.59
2022-08-23T00:56:13.995Z,66.16
2022-08-23T00:58:26.505Z,66.32
2022-08-23T01:00:35.446Z,67.24
2022-08-23T01:02:50.903Z,67.93
2022-08-23T01:05:02.347Z,67.23
2022-08-23T01:07:18.274Z,67.40
2022-08-23T01:09:31.191Z,67.88
2022-08-23T01:11:45.945Z,67.70
2022-08-23T01:13:59.069Z,67.99
2022-08-23T01:16:11.026Z,68.02
2022-08-23T01:18:27.216Z,68.96
2022-08-23T01:20:45.131Z,68.86
2022-08-23T01:23:01.530Z,69.40
2022-08-23T01:25:16.925Z,69.83
2022-08-23T01:27:26.076Z,70.31
2022-08-23T01:29:34.222Z,70.50
2022-08-23T01:31:43.785Z,70.39
2022-08-23T01:33:59.922Z,70.51
2022-08-23T01:36:12.335Z,70.22
2022-08-23T01:38:20.964Z,69.63
2022-08-23T01:40:32.773Z,70.05
2022-08-23T01:42:42.578Z,70.97
2022-08-23T01:44:53.401Z,71.20
2022-08-23T01:47:01.333Z,71.11
2022-08-23T01:49:10.295Z,70.88
2022-08-23T01:51:20.302Z,70.66
2022-08-23T01:53:28.609Z,70.98
2022-08-23T01:55:39.944Z,70.83
2022-08-23T01:57:49.891Z,70.78
2022-08-23T02:00:00.045Z,70.07
2022-08-23T02:02:12.457Z,70.09
2022-08-23T02:04:20.399Z,70.16
2022-08-23T02:06:30.367Z,70.20
2022-08-23T02:08:52.196Z,70.61
2022-08-23T02:11:11.353Z,70.95
2022-08-23T02:13:21.683Z,71.32
2022-08-23T02:15:32.197Z,71.93
2022-08-23T02:17:47.106Z,71.59
2022-08-23T02:19:56.281Z,71.78
2022-08-23T02:22:04.609Z,71.75
2022-08-23T02:24:16.181Z,71.88
2022-08-23T02:26:31.080Z,71.46
2022-08-23T02:28:39.741Z,71.69
2022-08-23T02:30:48.926Z,71.92
2022-08-23T02:32:57.807Z,71.44
2022-08-23T02:35:08.409Z,71.68
2022-08-23T02:37:17.867Z,72.16
2022-08-23T02:39:26.324Z,72.85
2022-08-23T02:41:38.204Z,73.33
2022-08-23T02:43:49.019Z,73.19
2022-08-23T02:45:58.311Z,74.01
2022-08-23T02:48:09.078Z,74.13
2022-08-23T02:50:39.516Z,74.66
2022-08-23T02:52:47.418Z,75.10
2022-08-23T02:54:58.249Z,74.52
2022-08-23T02:57:09.541Z,75.15
2022-08-23T02:59:17.735Z,75.25
2022-08-23T03:01:28.942Z,76.05
2022-08-23T03:03:41.586Z,76.02
2022-08-23T03:05:49.961Z,76.45
2022-08-23T03:07:59.145Z,76.89
2022-08-23T03:10:08.025Z,77.18
2022-08-23T03:12:21.117Z,77.30
2022-08-23T03:14:35.295Z,77.81
2022-08-23T03:16:46.600Z,78.10
2022-08-23T03:18:55.420Z,78.40
2022-08-23T03:21:03.352Z,77.53
2022-08-23T03:23:12.133Z,76.87
2022-08-23T03:25:20.645Z,77.45
2022-08-23T03:27:45.015Z,77.78
2022-08-23T03:29:54.304Z,78.47
2022-08-23T03:32:03.138Z,78.70
2022-08-23T03:34:15.833Z,79.26
2022-08-23T03:36:27.879Z,79.43
2022-08-23T03:38:38.816Z,79.85
2022-08-23T03:40:52.562Z,80.06
2022-08-23T03:43:03.340Z,80.04
2022-08-23T03:45:13.201Z,79.79
2022-08-23T03:47:21.313Z,79.84
2022-08-23T03:49:32.575Z,80.08
2022-08-23T03:51:40.711Z,80.21
2022-08-23T03:53:49.649Z,80.56
2022-08-23T03:55:58.691Z,80.43
2022-08-23T03:58:09.703Z,80.34
2022-08-23T04:00:20.306Z,80.57
2022-08-23T04:02:30.723Z,81.13
2022-08-23T04:04:39.840Z,81.09
2022-08-23T04:07:22.005Z,81.42
2022-08-23T04:09:34.233Z,81.42
2022-08-23T04:11:43.229Z,82.11
2022-08-23T04:13:54.258Z,82.41
2022-08-23T04:16:03.736Z,82.81
2022-08-23T04:18:11.745Z,82.71
2022-08-23T04:20:20.598Z,83.02
2022-08-23T04:22:38.326Z,83.20
2022-08-23T04:24:47.316Z,83.13
2022-08-23T04:26:55.725Z,83.32
2022-08-23T04:29:06.467Z,83.54
2022-08-23T04:31:16.639Z,83.74
2022-08-23T04:33:28.840Z,84.12
2022-08-23T04:35:36.925Z,84.51
2022-08-23T04:37:47.532Z,84.77
2022-08-23T04:40:07.876Z,84.62
2022-08-23T04:42:23.352Z,85.35
2022-08-23T04:44:36.110Z,86.27
2022-08-23T04:46:45.225Z,86.76
2022-08-23T04:48:54.235Z,88.10
2022-08-23T04:51:02.435Z,89.25
2022-08-23T04:53:13.917Z,89.61
2022-08-23T04:55:33.604Z,89.03
2022-08-23T04:57:47.968Z,87.36
2022-08-23T05:00:03.558Z,85.24
2022-08-23T05:02:11.967Z,83.08
2022-08-23T05:04:21.097Z,80.42
2022-08-23T05:06:30.182Z,78.68
2022-08-23T05:08:38.795Z,77.14
2022-08-23T05:10:48.343Z,74.49
2022-08-23T05:12:56.469Z,71.91
2022-08-23T05:15:09.568Z,68.65
2022-08-23T05:17:20.565Z,65.03
2022-08-23T05:19:28.667Z,62.11
2022-08-23T05:21:36.949Z,59.92
2022-08-23T05:23:45.077Z,55.08
2022-08-23T05:26:02.291Z,57.00
2022-08-23T05:28:15.827Z,57.27
2022-08-23T05:30:26.309Z,49.82
2022-08-23T05:32:34.897Z,47.34
2022-08-23T05:34:44.548Z,51.79
2022-08-23T05:36:55.212Z,49.99
2022-08-23T05:39:08.017Z,47.79
2022-08-23T05:41:20.947Z,51.10
2022-08-23T05:43:30.173Z,51.56
2022-08-23T05:45:42.879Z,44.69
2022-08-23T05:47:52.310Z,48.54
2022-08-23T05:50:22.635Z,44.11
2022-08-23T05:52:31.157Z,41.81
2022-08-23T05:54:39.348Z,42.20
2022-08-23T05:57:13.467Z,41.28
2022-08-23T05:59:21.586Z,38.54
2022-08-23T06:01:33.560Z,42.35
2022-08-23T06:03:48.074Z,37.74
2022-08-23T06:06:00.322Z,40.53
2022-08-23T06:08:08.285Z,38.99
2022-08-23T06:10:16.631Z,44.21
2022-08-23T06:12:30.727Z,42.95
2022-08-23T06:14:38.704Z,42.70
2022-08-23T06:16:55.721Z,39.37
2022-08-23T06:19:08.503Z,40.41
2022-08-23T06:21:31.851Z,39.79
2022-08-23T06:23:40.685Z,39.08
2022-08-23T06:25:48.889Z,37.64
2022-08-23T06:27:57.751Z,41.20
2022-08-23T06:30:08.353Z,41.01
2022-08-23T06:32:31.778Z,40.86
2022-08-23T06:35:27.808Z,41.13
2022-08-23T06:37:39.530Z,39.95
2022-08-23T06:40:09.480Z,36.57
2022-08-23T06:42:42.517Z,37.28
2022-08-23T06:44:51.366Z,37.47
2022-08-23T06:47:09.737Z,36.86
2022-08-23T06:49:23.477Z,40.47
2022-08-23T06:51:34.506Z,36.47
2022-08-23T06:54:14.191Z,36.12
2022-08-23T06:56:22.315Z,34.30
2022-08-23T06:58:44.281Z,35.53
2022-08-23T07:01:35.059Z,31.49
2022-08-23T07:03:50.064Z,28.53
2022-08-23T07:06:19.242Z,32.44
2022-08-23T07:08:29.493Z,37.13
2022-08-23T07:10:37.463Z,36.65
2022-08-23T07:12:46.310Z,37.32
2022-08-23T07:14:55.092Z,38.05
2022-08-23T07:17:04.762Z,39.97
2022-08-23T07:19:13.961Z,38.65
2022-08-23T07:21:24.545Z,37.83
2022-08-23T07:23:34.437Z,38.42
2022-08-23T07:25:44.992Z,35.37
2022-08-23T07:27:57.304Z,35.48
2022-08-23T07:30:05.934Z,35.92
2022-08-23T07:32:18.762Z,39.06
2022-08-23T07:34:28.954Z,39.68
2022-08-23T07:36:40.441Z,37.28
2022-08-23T07:38:51.531Z,38.15
2022-08-23T07:41:01.657Z,34.20
2022-08-23T07:43:10.628Z,35.88
2022-08-23T07:45:22.275Z,31.38
2022-08-23T07:47:34.290Z,33.94
2022-08-23T07:49:42.096Z,31.45
2022-08-23T07:51:54.510Z,32.70
2022-08-23T07:54:05.982Z,33.69
2022-08-23T07:56:18.657Z,36.85
2022-08-23T07:58:48.136Z,41.49
2022-08-23T08:01:16.386Z,43.96
2022-08-23T08:03:31.396Z,44.28
2022-08-23T08:05:57.709Z,44.49
2022-08-23T08:08:09.037Z,44.36
2022-08-23T08:10:18.903Z,44.57
2022-08-23T08:12:27.128Z,44.92
2022-08-23T08:14:37.424Z,44.11
2022-08-23T08:16:47.171Z,47.45
2022-08-23T08:19:02.422Z,49.78
2022-08-23T08:21:16.983Z,49.17
2022-08-23T08:23:42.822Z,47.11
2022-08-23T08:26:12.518Z,49.52
2022-08-23T08:28:31.356Z,48.73
2022-08-23T08:30:40.971Z,51.31
2022-08-23T08:32:49.149Z,53.63
2022-08-23T08:34:57.339Z,53.96
2022-08-23T08:37:05.384Z,54.36
2022-08-23T08:39:18.888Z,53.30
2022-08-23T08:41:41.891Z,54.02
2022-08-23T08:44:06.560Z,54.12
2022-08-23T08:46:20.775Z,52.67
2022-08-23T08:48:31.097Z,51.25
2022-08-23T08:50:44.708Z,51.43
2022-08-23T08:52:57.329Z,52.06
2022-08-23T08:55:30.107Z,51.88
2022-08-23T08:57:43.510Z,52.26
2022-08-23T09:00:00.821Z,51.03
2022-08-23T09:02:31.777Z,50.88
2022-08-23T09:04:44.843Z,50.98
2022-08-23T09:06:59.791Z,49.97
2022-08-23T09:09:29.066Z,49.63
2022-08-23T09:11:55.678Z,47.93
2022-08-23T09:14:18.535Z,46.98
2022-08-23T09:16:40.606Z,47.97
2022-08-23T09:18:49.854Z,47.08
2022-08-23T09:20:59.073Z,44.01
2022-08-23T09:23:12.088Z,44.79
2022-08-23T09:25:22.840Z,46.27
2022-08-23T09:27:43.751Z,41.08
2022-08-23T09:29:56.892Z,37.59
2022-08-23T09:32:06.807Z,33.83
2022-08-23T09:34:22.181Z,32.38
2022-08-23T09:36:45.265Z,28.94
2022-08-23T09:38:59.595Z,28.28
2022-08-23T09:41:21.515Z,25.57
2022-08-23T09:43:48.351Z,25.88
2022-08-23T09:46:03.053Z,24.31
2022-08-23T09:48:18.279Z,24.64
2022-08-23T09:50:33.985Z,26.60
2022-08-23T09:52:42.784Z,27.16
2022-08-23T09:54:59.284Z,28.60
2022-08-23T09:57:11.091Z,27.97
2022-08-23T09:59:42.320Z,27.23
2022-08-23T10:01:57.148Z,26.08
2022-08-23T10:04:14.605Z,24.24
2022-08-23T10:06:34.238Z,26.63
2022-08-23T10:08:56.293Z,27.89
2022-08-23T10:11:16.079Z,27.93
2022-08-23T10:13:24.182Z,28.13
2022-08-23T10:15:49.643Z,27.33
2022-08-23T10:18:08.163Z,24.42
2022-08-23T10:20:30.499Z,23.85
2022-08-23T10:22:46.183Z,26.44
2022-08-23T10:25:13.010Z,27.73
2022-08-23T10:27:46.616Z,27.68
2022-08-23T10:30:03.606Z,28.44
2022-08-23T10:32:25.562Z,29.21
2022-08-23T10:34:50.381Z,27.69
2022-08-23T10:37:15.841Z,26.76
2022-08-23T10:39:31.031Z,28.00
2022-08-23T10:41:51.807Z,27.00
2022-08-23T10:44:11.912Z,26.29
2022-08-23T10:46:23.427Z,27.34
2022-08-23T10:48:40.930Z,25.16
2022-08-23T10:50:55.932Z,27.33
2022-08-23T10:53:14.918Z,27.16
2022-08-23T10:55:46.582Z,25.80
2022-08-23T10:57:56.396Z,26.17
2022-08-23T11:00:06.159Z,25.18
2022-08-23T11:02:28.229Z,23.05
2022-08-23T11:05:05.702Z,25.69
2022-08-23T11:07:21.361Z,26.76
2022-08-23T11:09:58.386Z,27.46
2022-08-23T11:12:23.449Z,28.85
2022-08-23T11:14:41.912Z,27.58
2022-08-23T11:16:51.139Z,28.71
2022-08-23T11:18:59.840Z,30.37
2022-08-23T11:21:45.540Z,32.01
2022-08-23T11:24:32.735Z,30.83
2022-08-23T11:27:11.401Z,31.55
2022-08-23T11:29:32.433Z,31.35
2022-08-23T11:32:07.706Z,30.21
2022-08-23T11:34:27.317Z,31.08
2022-08-23T11:36:44.792Z,31.35
2022-08-23T11:39:19.571Z,32.07
2022-08-23T11:41:37.817Z,31.33
2022-08-23T11:43:50.712Z,31.58
2022-08-23T11:46:37.526Z,31.85
2022-08-23T11:48:55.940Z,31.10
2022-08-23T11:51:21.679Z,32.05
2022-08-23T11:53:45.522Z,34.43
2022-08-23T11:56:09.216Z,32.01
2022-08-23T11:58:26.078Z,30.69
2022-08-23T12:00:57.556Z,31.13
2022-08-23T12:03:08.552Z,31.25
2022-08-23T12:05:35.336Z,31.61
2022-08-23T12:07:48.055Z,32.69
2022-08-23T12:09:58.940Z,33.01
2022-08-23T12:12:16.881Z,31.86
2022-08-23T12:14:50.373Z,33.21
2022-08-23T12:17:04.246Z,29.94
2022-08-23T12:19:27.395Z,33.13
2022-08-23T12:21:47.019Z,31.57
2022-08-23T12:23:57.509Z,32.35
2022-08-23T12:26:16.862Z,31.74
2022-08-23T12:28:39.464Z,32.29
2022-08-23T12:30:59.765Z,32.38
2022-08-23T12:33:32.765Z,31.01
2022-08-23T12:35:49.184Z,33.16
2022-08-23T12:38:04.887Z,31.01
2022-08-23T12:40:18.766Z,31.94
2022-08-23T12:42:31.633Z,31.78
2022-08-23T12:44:40.022Z,31.96
2022-08-23T12:46:54.079Z,30.69
2022-08-23T12:49:13.485Z,30.41
2022-08-23T12:51:22.783Z,30.86
2022-08-23T12:53:33.849Z,30.54
2022-08-23T12:55:45.036Z,30.83
2022-08-23T12:57:56.714Z,30.65
2022-08-23T13:00:18.985Z,30.08
2022-08-23T13:02:29.986Z,31.63
2022-08-23T13:04:43.643Z,30.87
2022-08-23T13:07:00.910Z,31.46
2022-08-23T13:09:13.145Z,31.84
2022-08-23T13:11:25.168Z,32.31
2022-08-23T13:13:36.222Z,31.63
2022-08-23T13:15:49.234Z,30.46
2022-08-23T13:18:03.176Z,30.68
2022-08-23T13:20:24.907Z,32.38
2022-08-23T13:22:34.152Z,32.00
2022-08-23T13:24:43.793Z,31.52
2022-08-23T13:26:52.520Z,30.65
2022-08-23T13:29:13.199Z,30.60
2022-08-23T13:31:21.184Z,30.83
2022-08-23T13:33:29.093Z,31.20
2022-08-23T13:35:47.407Z,32.17
2022-08-23T13:38:01.417Z,30.14
2022-08-23T13:40:18.962Z,31.89
2022-08-23T13:42:34.937Z,32.40
2022-08-23T13:44:43.526Z,31.84
2022-08-23T13:46:51.618Z,32.60
2022-08-23T13:49:02.861Z,31.38
2022-08-23T13:51:29.289Z,31.73
2022-08-23T13:53:37.121Z,31.30
2022-08-23T13:55:48.708Z,30.01
2022-08-23T13:57:59.058Z,31.73
2022-08-23T14:00:10.790Z,29.11
2022-08-23T14:02:23.781Z,30.01
2022-08-23T14:04:31.634Z,31.98
2022-08-23T14:06:43.118Z,30.35
2022-08-23T14:08:57.194Z,29.44
2022-08-23T14:11:08.125Z,29.53
2022-08-23T14:13:19.825Z,29.43
2022-08-23T14:17:57.585Z,30.33
2022-08-23T14:22:38.746Z,30.03
2022-08-23T14:24:47.351Z,29.90
2022-08-23T14:26:56.448Z,30.89
2022-08-23T14:29:04.529Z,29.68
2022-08-23T14:31:13.025Z,29.70
2022-08-23T14:33:21.843Z,30.71
2022-08-23T14:35:30.205Z,31.30
2022-08-23T14:40:13.155Z,30.39
2022-08-23T14:42:25.377Z,30.16
2022-08-23T14:44:35.966Z,30.49
2022-08-23T14:46:44.286Z,31.35
2022-08-23T14:48:52.157Z,32.88
2022-08-23T14:51:00.607Z,32.52
2022-08-23T14:53:11.750Z,32.50
2022-08-23T14:55:24.400Z,32.45
2022-08-23T14:57:32.737Z,31.13
2022-08-23T14:59:40.598Z,31.36
2022-08-23T15:01:50.086Z,34.01
2022-08-23T15:03:59.018Z,30.16
2022-08-23T15:06:07.153Z,31.90
2022-08-23T15:08:17.610Z,31.74
2022-08-23T15:12:58.310Z,32.60
2022-08-23T15:15:12.138Z,30.64
2022-08-23T15:17:20.609Z,32.03
2022-08-23T15:19:28.716Z,31.79
2022-08-23T15:21:36.638Z,31.27
2022-08-23T15:23:47.859Z,31.68
2022-08-23T15:25:55.962Z,31.02
2022-08-23T15:28:05.507Z,30.58
2022-08-23T15:30:18.140Z,31.65
2022-08-23T15:32:26.381Z,31.60
2022-08-23T15:34:36.223Z,31.63
2022-08-23T15:36:45.051Z,30.97
2022-08-23T15:38:56.225Z,30.78
2022-08-23T15:41:04.265Z,31.41
2022-08-23T15:43:12.343Z,32.34
2022-08-23T15:45:20.423Z,31.55
2022-08-23T15:47:34.086Z,31.43
2022-08-23T15:49:41.980Z,30.77
2022-08-23T15:51:49.747Z,31.57
2022-08-23T15:54:00.307Z,31.84
2022-08-23T15:56:14.330Z,32.62
2022-08-23T15:58:24.918Z,31.26
2022-08-23T16:00:32.980Z,31.90
2022-08-23T16:03:06.554Z,31.68
2022-08-23T16:05:12.205Z,32.01
2022-08-23T16:07:21.899Z,32.89
2022-08-23T16:09:33.808Z,32.42
2022-08-23T16:11:44.228Z,32.19
2022-08-23T16:13:55.398Z,32.15
2022-08-23T16:16:03.794Z,32.45
2022-08-23T16:18:12.205Z,32.54
2022-08-23T16:20:20.385Z,33.04
2022-08-23T16:22:28.321Z,33.01
2022-08-23T16:24:39.188Z,32.28
2022-08-23T16:26:48.270Z,32.58
2022-08-23T16:28:59.566Z,33.80
2022-08-23T16:31:11.165Z,34.61
2022-08-23T16:33:19.004Z,32.70
2022-08-23T16:35:28.442Z,33.06
2022-08-23T16:37:36.904Z,32.70
2022-08-23T16:39:48.084Z,32.96
2022-08-23T16:41:56.233Z,32.58
2022-08-23T16:44:04.054Z,33.95
2022-08-23T16:46:12.516Z,33.75
2022-08-23T16:48:20.995Z,32.57
2022-08-23T16:50:28.974Z,33.44
2022-08-23T16:52:36.972Z,34.06
2022-08-23T16:54:47.715Z,34.26
2022-08-23T16:56:56.838Z,34.28
2022-08-23T16:59:06.310Z,34.40
2022-08-23T17:01:14.608Z,35.46
2022-08-23T17:03:27.155Z,34.59
2022-08-23T17:05:35.088Z,34.56
2022-08-23T17:07:43.397Z,35.22
2022-08-23T17:09:54.066Z,35.97
2022-08-23T17:12:02.483Z,35.73
2022-08-23T17:14:10.314Z,36.31
2022-08-23T17:16:19.220Z,37.04
2022-08-23T17:18:27.725Z,36.70
2022-08-23T17:20:39.522Z,36.92
2022-08-23T17:22:47.692Z,36.94
2022-08-23T17:24:58.077Z,37.14
2022-08-23T17:27:06.013Z,37.91
2022-08-23T17:29:14.094Z,37.88
2022-08-23T17:31:23.307Z,37.85
2022-08-23T17:33:31.724Z,37.56
2022-08-23T17:35:40.521Z,37.25
2022-08-23T17:37:49.028Z,37.71
2022-08-23T17:39:59.590Z,37.67
2022-08-23T17:42:08.373Z,38.24
2022-08-23T17:44:17.501Z,38.48
2022-08-23T17:46:25.592Z,39.31
2022-08-23T17:48:33.461Z,39.42
2022-08-23T17:50:44.335Z,40.03
2022-08-23T17:52:53.049Z,40.33
2022-08-23T17:55:03.609Z,40.86
2022-08-23T17:57:13.999Z,40.39
2022-08-23T17:59:23.506Z,41.24
2022-08-23T18:01:31.468Z,41.75
2022-08-23T18:03:39.502Z,41.82
2022-08-23T18:05:47.343Z,42.08
2022-08-23T18:07:55.406Z,41.79
2022-08-23T18:10:07.396Z,42.19
2022-08-23T18:12:15.320Z,41.20
2022-08-23T18:14:27.879Z,40.95
2022-08-23T18:16:36.062Z,41.45
2022-08-23T18:18:44.042Z,41.85
2022-08-23T18:20:51.906Z,42.93
2022-08-23T18:23:01.396Z,43.56
2022-08-23T18:25:16.944Z,43.42
2022-08-23T18:27:37.156Z,43.65
2022-08-23T18:29:45.642Z,43.40
2022-08-23T18:32:00.280Z,43.58
2022-08-23T18:34:08.369Z,43.62
2022-08-23T18:36:16.466Z,44.65
2022-08-23T18:38:24.266Z,44.73
2022-08-23T18:40:45.369Z,45.43
2022-08-23T18:42:53.911Z,44.15
2022-08-23T18:45:01.791Z,44.94
2022-08-23T18:47:10.463Z,45.05
2022-08-23T18:49:18.629Z,45.86
2022-08-23T18:51:27.724Z,45.75
2022-08-23T18:53:39.003Z,46.18
2022-08-23T18:55:51.365Z,46.31
2022-08-23T18:57:59.388Z,47.37
2022-08-23T19:00:09.949Z,47.95
2022-08-23T19:02:21.801Z,48.37
2022-08-23T19:04:30.179Z,48.99
2022-08-23T19:06:39.132Z,49.12
2022-08-23T19:08:47.203Z,49.13
2022-08-23T19:10:57.694Z,48.92
2022-08-23T19:13:06.424Z,49.06
2022-08-23T19:15:16.700Z,49.11
2022-08-23T19:17:24.610Z,49.37
2022-08-23T19:19:34.235Z,49.12
2022-08-23T19:21:42.144Z,48.99
2022-08-23T19:23:56.114Z,48.96
2022-08-23T19:26:09.740Z,48.20
2022-08-23T19:28:20.112Z,48.58
2022-08-23T19:30:29.282Z,48.71
2022-08-23T19:32:39.464Z,49.32
2022-08-23T19:34:47.452Z,49.23
2022-08-23T19:37:01.179Z,49.38
2022-08-23T19:39:09.729Z,49.78
2022-08-23T19:41:21.029Z,50.09
2022-08-23T19:43:29.796Z,50.51
2022-08-23T19:45:40.305Z,50.71
2022-08-23T19:47:48.699Z,50.48
2022-08-23T19:49:56.914Z,50.47
2022-08-23T19:52:04.960Z,51.02
2022-08-23T19:54:15.625Z,50.85
2022-08-23T19:56:27.769Z,51.03
2022-08-23T19:58:36.065Z,51.51
2022-08-23T20:00:44.029Z,52.05
2022-08-23T20:02:52.279Z,52.91
2022-08-23T20:05:00.379Z,54.02
2022-08-23T20:07:09.580Z,53.42
2022-08-23T20:09:18.506Z,54.18
2022-08-23T20:11:29.685Z,54.07
2022-08-23T20:13:37.667Z,53.65
2022-08-23T20:15:45.599Z,53.96
2022-08-23T20:17:53.737Z,54.36
2022-08-23T20:20:01.809Z,55.19
2022-08-23T20:22:23.043Z,54.62
2022-08-23T20:24:50.544Z,53.85
2022-08-23T20:27:02.168Z,54.61
2022-08-23T20:29:11.352Z,54.38
2022-08-23T20:31:21.850Z,54.93
2022-08-23T20:33:31.163Z,55.04
2022-08-23T20:35:39.311Z,55.26
2022-08-23T20:37:47.147Z,55.24
2022-08-23T20:39:55.593Z,55.57
2022-08-23T20:42:08.016Z,56.15
2022-08-23T20:44:16.255Z,56.58
2022-08-23T20:46:24.340Z,56.50
2022-08-23T20:48:32.457Z,56.40
2022-08-23T20:50:40.319Z,56.77
2022-08-23T20:52:48.660Z,56.71
2022-08-23T20:54:56.508Z,56.64
2022-08-23T20:57:08.095Z,57.27
2022-08-23T20:59:16.062Z,57.44
2022-08-23T21:01:25.072Z,57.27
2022-08-23T21:03:33.200Z,57.34
2022-08-23T21:05:41.380Z,57.91
2022-08-23T21:07:49.656Z,57.91
2022-08-23T21:09:58.344Z,58.23
2022-08-23T21:12:09.759Z,58.45
2022-08-23T21:14:20.666Z,58.08
2022-08-23T21:16:30.369Z,58.32
2022-08-23T21:18:38.633Z,58.36
2022-08-23T21:20:46.786Z,58.57
2022-08-23T21:22:54.850Z,59.05
2022-08-23T21:25:03.214Z,58.91
2022-08-23T21:27:13.834Z,58.32
2022-08-23T21:29:22.197Z,58.25
2022-08-23T21:31:31.582Z,58.55
2022-08-23T21:33:40.448Z,58.58
2022-08-23T21:35:48.614Z,58.44
2022-08-23T21:37:56.636Z,58.37
2022-08-23T21:40:08.346Z,58.73
2022-08-23T21:42:23.494Z,59.70
2022-08-23T21:44:31.763Z,59.71
2022-08-23T21:46:40.126Z,60.31
2022-08-23T21:48:48.139Z,61.36
2022-08-23T21:50:56.107Z,60.66
2022-08-23T21:53:05.196Z,60.76
2022-08-23T21:55:13.707Z,60.91
2022-08-23T21:57:25.882Z,61.42
2022-08-23T21:59:34.017Z,62.08
2022-08-23T22:01:42.955Z,61.81
2022-08-23T22:03:56.204Z,62.66
2022-08-23T22:06:05.162Z,62.54
2022-08-23T22:08:14.627Z,62.18
2022-08-23T22:10:25.564Z,62.92
2022-08-23T22:12:36.757Z,62.76
2022-08-23T22:14:45.381Z,62.50
2022-08-23T22:16:55.356Z,63.40
2022-08-23T22:19:03.602Z,64.73
2022-08-23T22:21:13.047Z,63.02
2022-08-23T22:23:21.069Z,63.06
2022-08-23T22:25:29.278Z,63.27
2022-08-23T22:27:40.159Z,64.40
2022-08-23T22:29:48.631Z,63.99
2022-08-23T22:31:56.559Z,63.73
2022-08-23T22:34:04.731Z,63.95
2022-08-23T22:36:16.665Z,63.63
2022-08-23T22:38:24.619Z,63.43
2022-08-23T22:40:32.478Z,63.79
2022-08-23T22:42:43.434Z,63.25
2022-08-23T22:44:57.535Z,63.72
2022-08-23T22:47:05.637Z,64.30
2022-08-23T22:49:13.952Z,64.26
2022-08-23T22:51:25.182Z,64.37
2022-08-23T22:53:33.181Z,65.36
2022-08-23T22:55:41.991Z,65.26
2022-08-23T22:57:52.663Z,65.82
2022-08-23T23:00:01.017Z,66.23
2022-08-23T23:02:09.859Z,66.29
2022-08-23T23:04:20.386Z,66.35
2022-08-23T23:06:29.247Z,66.38
2022-08-23T23:08:34.655Z,66.65
2022-08-23T23:10:42.805Z,66.69
2022-08-23T23:12:53.551Z,67.03
2022-08-23T23:15:01.549Z,67.48
2022-08-23T23:17:21.125Z,67.45
2022-08-23T23:19:41.489Z,67.99
2022-08-23T23:21:53.215Z,68.29
2022-08-23T23:24:01.202Z,68.80
2022-08-23T23:26:10.466Z,68.94
2022-08-23T23:28:24.369Z,68.32
2022-08-23T23:30:34.554Z,68.19
2022-08-23T23:32:43.287Z,68.72
2022-08-23T23:34:51.488Z,69.00
2022-08-23T23:37:00.647Z,69.20
2022-08-23T23:39:10.170Z,69.45
2022-08-23T23:41:18.485Z,69.50
2022-08-23T23:43:29.032Z,70.04
2022-08-23T23:45:37.036Z,71.08
2022-08-23T23:47:45.463Z,71.29
2022-08-23T23:49:53.428Z,71.42
2022-08-23T23:52:02.013Z,71.15
2022-08-23T23:54:09.960Z,71.49
2022-08-23T23:56:24.049Z,72.15
2022-08-23T23:58:34.676Z,73.14
